Time,TemperatureF,DewpointF,PressureIn,WindDirection,WindDirectionDegrees,WindSpeedMPH,WindSpeedGustMPH,Humidity,HourlyPrecipIn,Conditions,Clouds,dailyrainin,SoftwareType,DateUTC
2013-02-17 10:10:00,17.4,5.9,29.45,South,191,4.0,4.0,60,0.00,,,0.00,Wunderground v.1.15,2013-02-17 15:10:00,
2013-02-17 10:20:00,17.1,6.3,29.44,NNE,18,3.0,3.0,62,0.00,,,0.00,Wunderground v.1.15,2013-02-17 15:20:00,
2013-02-17 10:25:00,17.0,6.6,29.44,SSE,160,3.0,3.0,63,0.00,,,0.00,Wunderground v.1.15,2013-02-17 15:25:00,
2013-02-17 10:30:00,16.9,6.8,29.44,South,172,3.0,3.0,64,0.00,,,0.00,Wunderground v.1.15,2013-02-17 15:30:00,
2013-02-17 10:35:00,16.7,7.0,29.43,WNW,302,4.0,4.0,65,0.00,,,0.00,Wunderground v.1.15,2013-02-17 15:35:00,
2013-02-17 10:40:00,16.6,7.5,29.43,North,350,4.0,4.0,67,0.00,,,0.00,Wunderground v.1.15,2013-02-17 15:40:00,
2013-02-17 10:50:00,16.2,7.8,29.42,SW,232,4.0,4.0,69,0.00,,,0.00,Wunderground v.1.15,2013-02-17 15:50:00,
2013-02-17 10:55:00,16.2,8.1,29.42,South,190,5.0,7.0,70,0.00,,,0.00,Wunderground v.1.15,2013-02-17 15:55:00,
2013-02-17 11:00:00,16.1,8.0,29.42,SSE,160,6.0,9.0,70,0.00,,,0.00,Wunderground v.1.15,2013-02-17 16:00:00,
2013-02-17 11:10:00,16.2,8.4,29.42,SSE,151,6.0,6.0,71,0.00,,,0.00,Wunderground v.1.15,2013-02-17 16:10:00,
2013-02-17 11:15:00,16.1,8.3,29.42,ESE,115,5.0,6.0,71,0.00,,,0.00,Wunderground v.1.15,2013-02-17 16:15:00,
2013-02-17 11:20:00,16.2,8.4,29.41,NW,305,5.0,5.0,71,0.00,,,0.00,Wunderground v.1.15,2013-02-17 16:20:00,
2013-02-17 11:25:00,16.0,8.3,29.42,NW,322,5.0,5.0,71,0.00,,,0.00,Wunderground v.1.15,2013-02-17 16:25:00,
2013-02-17 11:30:00,16.0,8.3,29.40,SE,134,5.0,6.0,71,0.00,,,0.00,Wunderground v.1.15,2013-02-17 16:30:00,
2013-02-17 11:40:00,16.2,8.1,29.39,NNW,338,6.0,6.0,70,0.00,,,0.00,Wunderground v.1.15,2013-02-17 16:40:00,
2013-02-17 11:45:00,16.1,8.3,29.41,SSE,153,6.0,6.0,71,0.00,,,0.00,Wunderground v.1.15,2013-02-17 16:45:00,
2013-02-17 11:50:00,16.1,7.7,29.38,NNE,16,6.0,12.0,69,0.00,,,0.00,Wunderground v.1.15,2013-02-17 16:50:00,
2013-02-17 12:00:00,16.0,7.9,29.39,NW,323,6.0,6.0,70,0.00,,,0.00,Wunderground v.1.15,2013-02-17 17:00:00,
2013-02-17 12:05:00,16.0,8.3,29.38,SSW,205,5.0,6.0,71,0.00,,,0.00,Wunderground v.1.15,2013-02-17 17:05:00,
2013-02-17 12:10:00,15.9,8.2,29.39,SSW,207,5.0,9.0,71,0.00,,,0.00,Wunderground v.1.15,2013-02-17 17:10:00,
2013-02-17 12:20:00,16.0,7.3,29.38,SSE,158,6.0,6.0,68,0.00,,,0.00,Wunderground v.1.15,2013-02-17 17:20:00,
2013-02-17 12:30:00,16.0,7.6,29.38,SE,143,5.0,9.0,69,0.00,,,0.00,Wunderground v.1.15,2013-02-17 17:30:00,
2013-02-17 12:35:00,16.0,7.3,29.37,WSW,252,5.0,9.0,68,0.00,,,0.00,Wunderground v.1.15,2013-02-17 17:35:00,
2013-02-17 12:40:00,16.1,7.1,29.37,South,176,6.0,9.0,67,0.00,,,0.00,Wunderground v.1.15,2013-02-17 17:40:00,
2013-02-17 12:45:00,16.0,7.0,29.38,SSW,204,6.0,9.0,67,0.00,,,0.00,Wunderground v.1.15,2013-02-17 17:45:00,
2013-02-17 12:55:00,16.0,7.3,29.36,South,180,5.0,6.0,68,0.00,,,0.00,Wunderground v.1.15,2013-02-17 17:55:00,
2013-02-17 13:00:00,16.1,7.4,29.35,SSE,159,5.0,9.0,68,0.00,,,0.00,Wunderground v.1.15,2013-02-17 18:00:00,
2013-02-17 13:05:00,16.2,7.5,29.35,SSE,166,5.0,10.0,68,0.00,,,0.00,Wunderground v.1.15,2013-02-17 18:05:00,
2013-02-17 13:15:00,16.5,7.4,29.35,SSW,211,6.0,6.0,67,0.00,,,0.00,Wunderground v.1.15,2013-02-17 18:15:00,
2013-02-17 13:20:00,16.4,8.0,29.35,North,3,6.0,6.0,69,0.00,,,0.00,Wunderground v.1.15,2013-02-17 18:20:00,
2013-02-17 13:30:00,16.6,7.5,29.34,SSW,203,4.0,4.0,67,0.00,,,0.00,Wunderground v.1.15,2013-02-17 18:30:00,
2013-02-17 13:35:00,16.7,7.0,29.33,East,96,5.0,5.0,65,0.00,,,0.00,Wunderground v.1.15,2013-02-17 18:35:00,
2013-02-17 13:45:00,16.7,6.6,29.32,ENE,58,5.0,15.0,64,0.00,,,0.00,Wunderground v.1.15,2013-02-17 18:45:00,
2013-02-17 13:50:00,16.8,6.7,29.32,ESE,117,6.0,6.0,64,0.00,,,0.00,Wunderground v.1.15,2013-02-17 18:50:00,
2013-02-17 13:55:00,16.9,6.5,29.33,SSW,211,6.0,6.0,63,0.00,,,0.00,Wunderground v.1.15,2013-02-17 18:55:00,
2013-02-17 14:05:00,16.7,6.6,29.33,NW,325,8.0,13.0,64,0.00,,,0.00,Wunderground v.1.15,2013-02-17 19:05:00,
2013-02-17 14:10:00,16.7,5.9,29.32,SE,128,7.0,7.0,62,0.00,,,0.00,Wunderground v.1.15,2013-02-17 19:10:00,
2013-02-17 14:20:00,16.6,6.5,29.33,NNW,337,6.0,8.0,64,0.00,,,0.00,Wunderground v.1.15,2013-02-17 19:20:00,
2013-02-17 14:25:00,16.4,5.6,29.33,NW,314,6.0,8.0,62,0.00,,,0.00,Wunderground v.1.15,2013-02-17 19:25:00,
2013-02-17 14:30:00,16.1,5.7,29.32,NE,34,6.0,8.0,63,0.00,,,0.00,Wunderground v.1.15,2013-02-17 19:30:00,
2013-02-17 14:40:00,15.8,4.7,29.32,NW,316,6.0,6.0,61,0.00,,,0.00,Wunderground v.1.15,2013-02-17 19:40:00,
2013-02-17 14:45:00,15.6,4.5,29.33,ESE,110,6.0,6.0,61,0.00,,,0.00,Wunderground v.1.15,2013-02-17 19:45:00,
2013-02-17 14:55:00,15.4,3.6,29.33,ESE,122,6.0,8.0,59,0.00,,,0.00,Wunderground v.1.15,2013-02-17 19:55:00,
2013-02-17 15:00:00,15.3,3.5,29.33,South,191,7.0,7.0,59,0.00,,,0.00,Wunderground v.1.15,2013-02-17 20:00:00,
2013-02-17 15:05:00,15.2,3.4,29.33,NNW,340,6.0,7.0,59,0.00,,,0.00,Wunderground v.1.15,2013-02-17 20:05:00,
2013-02-17 15:15:00,14.9,2.8,29.34,North,360,5.0,6.0,58,0.00,,,0.00,Wunderground v.1.15,2013-02-17 20:15:00,
2013-02-17 15:20:00,14.7,2.2,29.34,SW,233,6.0,6.0,57,0.00,,,0.00,Wunderground v.1.15,2013-02-17 20:20:00,
2013-02-17 15:30:00,14.5,2.4,29.34,SE,143,6.0,6.0,58,0.00,,,0.00,Wunderground v.1.15,2013-02-17 20:30:00,
2013-02-17 15:35:00,14.4,2.3,29.34,NNE,29,6.0,10.0,58,0.00,,,0.00,Wunderground v.1.15,2013-02-17 20:35:00,
2013-02-17 15:40:00,14.2,1.7,29.33,South,172,5.0,7.0,57,0.00,,,0.00,Wunderground v.1.15,2013-02-17 20:40:00,
2013-02-17 15:50:00,13.9,1.8,29.35,NE,49,5.0,5.0,58,0.00,,,0.00,Wunderground v.1.15,2013-02-17 20:50:00,
2013-02-17 15:55:00,13.7,1.6,29.34,ESE,123,5.0,13.0,58,0.00,,,0.00,Wunderground v.1.15,2013-02-17 20:55:00,
2013-02-17 16:00:00,13.6,1.9,29.35,SSW,211,6.0,6.0,59,0.00,,,0.00,Wunderground v.1.15,2013-02-17 21:00:00,
2013-02-17 16:10:00,13.3,1.6,29.36,NNE,23,6.0,6.0,59,0.00,,,0.00,Wunderground v.1.15,2013-02-17 21:10:00,
2013-02-17 16:15:00,13.2,1.5,29.36,North,349,6.0,6.0,59,0.00,,,0.00,Wunderground v.1.15,2013-02-17 21:15:00,
2013-02-17 16:20:00,13.0,1.3,29.36,NW,305,7.0,7.0,59,0.00,,,0.00,Wunderground v.1.15,2013-02-17 21:20:00,
2013-02-17 16:30:00,12.9,1.6,29.36,NNW,344,7.0,7.0,60,0.00,,,0.00,Wunderground v.1.15,2013-02-17 21:30:00,
2013-02-17 16:35:00,12.8,1.2,29.36,NE,36,8.0,11.0,59,0.00,,,0.00,Wunderground v.1.15,2013-02-17 21:35:00,
2013-02-17 16:45:00,12.6,1.3,29.35,East,90,7.0,8.0,60,0.00,,,0.00,Wunderground v.1.15,2013-02-17 21:45:00,
2013-02-17 16:50:00,12.4,1.5,29.35,SSE,167,7.0,7.0,61,0.00,,,0.00,Wunderground v.1.15,2013-02-17 21:50:00,
2013-02-17 16:55:00,12.3,1.4,29.34,West,267,8.0,12.0,61,0.00,,,0.00,Wunderground v.1.15,2013-02-17 21:55:00,
2013-02-17 17:05:00,12.1,1.6,29.34,NE,35,8.0,11.0,62,0.00,,,0.00,Wunderground v.1.15,2013-02-17 22:05:00,
2013-02-17 17:10:00,11.9,1.7,29.35,West,278,9.0,9.0,63,0.00,,,0.00,Wunderground v.1.15,2013-02-17 22:10:00,
2013-02-17 17:20:00,11.8,2.0,29.34,NNW,344,9.0,9.0,64,0.00,,,0.00,Wunderground v.1.15,2013-02-17 22:20:00,
2013-02-17 17:25:00,11.8,2.3,29.34,ESE,107,9.0,9.0,65,0.00,,,0.00,Wunderground v.1.15,2013-02-17 22:25:00,
2013-02-17 17:30:00,11.8,2.3,29.33,NW,306,10.0,10.0,65,0.00,,,0.00,Wunderground v.1.15,2013-02-17 22:30:00,
2013-02-17 17:40:00,11.8,2.3,29.34,NNW,342,9.0,9.0,65,0.00,,,0.00,Wunderground v.1.15,2013-02-17 22:40:00,
2013-02-17 17:45:00,11.8,2.3,29.35,NNW,331,10.0,16.0,65,0.00,,,0.00,Wunderground v.1.15,2013-02-17 22:45:00,
2013-02-17 17:50:00,11.8,2.6,29.35,SW,231,9.0,9.0,66,0.00,,,0.00,Wunderground v.1.15,2013-02-17 22:50:00,
2013-02-17 18:00:00,11.9,2.7,29.36,West,266,10.0,15.0,66,0.00,,,0.00,Wunderground v.1.15,2013-02-17 23:00:00,
2013-02-17 18:10:00,12.0,2.8,29.35,West,263,9.0,9.0,66,0.00,,,0.00,Wunderground v.1.15,2013-02-17 23:10:00,
2013-02-17 18:15:00,12.0,3.1,29.35,NNW,347,9.0,9.0,67,0.00,,,0.00,Wunderground v.1.15,2013-02-17 23:15:00,
2013-02-17 18:20:00,12.0,3.1,29.36,North,356,9.0,15.0,67,0.00,,,0.00,Wunderground v.1.15,2013-02-17 23:20:00,
2013-02-17 18:30:00,11.8,3.3,29.36,NNW,335,10.0,15.0,68,0.00,,,0.00,Wunderground v.1.15,2013-02-17 23:30:00,
2013-02-17 18:35:00,11.8,3.3,29.36,West,269,11.0,15.0,68,0.00,,,0.00,Wunderground v.1.15,2013-02-17 23:35:00,
2013-02-17 18:40:00,11.9,3.4,29.36,East,98,10.0,10.0,68,0.00,,,0.00,Wunderground v.1.15,2013-02-17 23:40:00,
2013-02-17 18:50:00,12.0,3.1,29.38,NW,321,10.0,10.0,67,0.00,,,0.00,Wunderground v.1.15,2013-02-17 23:50:00,
2013-02-17 18:55:00,12.0,3.1,29.38,WNW,302,10.0,11.0,67,0.00,,,0.00,Wunderground v.1.15,2013-02-17 23:55:00,
2013-02-17 19:00:00,12.0,3.5,29.39,West,264,10.0,12.0,68,0.00,,,0.00,Wunderground v.1.15,2013-02-18 00:00:00,
2013-02-17 19:10:00,12.1,3.6,29.38,SSE,153,8.0,11.0,68,0.00,,,0.00,Wunderground v.1.15,2013-02-18 00:10:00,
2013-02-17 19:15:00,12.1,3.6,29.37,East,84,8.0,11.0,68,0.00,,,0.00,Wunderground v.1.15,2013-02-18 00:15:00,
2013-02-17 19:25:00,12.3,3.7,29.38,ENE,64,10.0,10.0,68,0.00,,,0.00,Wunderground v.1.15,2013-02-18 00:25:00,
2013-02-17 19:30:00,12.4,3.5,29.39,NE,47,10.0,15.0,67,0.00,,,0.00,Wunderground v.1.15,2013-02-18 00:30:00,
2013-02-17 19:35:00,12.4,3.2,29.38,NNW,338,10.0,15.0,66,0.00,,,0.00,Wunderground v.1.15,2013-02-18 00:35:00,
2013-02-17 19:45:00,12.6,3.4,29.39,West,281,11.0,21.0,66,0.00,,,0.00,Wunderground v.1.15,2013-02-18 00:45:00,
2013-02-17 19:50:00,12.6,3.4,29.39,NNW,328,12.0,12.0,66,0.00,,,0.00,Wunderground v.1.15,2013-02-18 00:50:00,
2013-02-17 20:00:00,12.7,3.1,29.40,NW,321,12.0,14.0,65,0.00,,,0.00,Wunderground v.1.15,2013-02-18 01:00:00,
2013-02-17 20:05:00,12.7,3.1,29.40,WNW,302,12.0,14.0,65,0.00,,,0.00,Wunderground v.1.15,2013-02-18 01:05:00,
2013-02-17 20:10:00,12.6,3.1,29.41,WNW,302,10.0,22.0,65,0.00,,,0.00,Wunderground v.1.15,2013-02-18 01:10:00,
2013-02-17 20:20:00,12.6,2.7,29.42,NW,315,11.0,11.0,64,0.00,,,0.00,Wunderground v.1.15,2013-02-18 01:20:00,
2013-02-17 20:25:00,12.5,3.3,29.43,NNW,340,11.0,22.0,66,0.00,,,0.00,Wunderground v.1.15,2013-02-18 01:25:00,
2013-02-17 20:35:00,12.5,3.0,29.43,West,267,11.0,17.0,65,0.00,,,0.00,Wunderground v.1.15,2013-02-18 01:35:00,
2013-02-17 20:40:00,12.4,3.2,29.41,WSW,238,11.0,11.0,66,0.00,,,0.00,Wunderground v.1.15,2013-02-18 01:40:00,
2013-02-17 20:45:00,12.3,2.8,29.41,NNW,337,10.0,18.0,65,0.00,,,0.00,Wunderground v.1.15,2013-02-18 01:45:00,
2013-02-17 20:55:00,12.2,2.7,29.42,SSE,166,8.0,11.0,65,0.00,,,0.00,Wunderground v.1.15,2013-02-18 01:55:00,
2013-02-17 21:00:00,12.1,2.6,29.43,West,274,10.0,10.0,65,0.00,,,0.00,Wunderground v.1.15,2013-02-18 02:00:00,
2013-02-17 21:10:00,12.0,2.8,29.44,WNW,294,10.0,12.0,66,0.00,,,0.00,Wunderground v.1.15,2013-02-18 02:10:00,
2013-02-17 21:15:00,12.0,2.1,29.44,NW,322,10.0,30.0,64,0.00,,,0.00,Wunderground v.1.15,2013-02-18 02:15:00,
2013-02-17 21:20:00,11.9,2.4,29.45,NNW,347,10.0,10.0,65,0.00,,,0.00,Wunderground v.1.15,2013-02-18 02:20:00,
2013-02-17 21:25:00,11.9,2.4,29.46,ENE,60,11.0,11.0,65,0.00,,,0.00,Wunderground v.1.15,2013-02-18 02:25:00,
2013-02-17 21:35:00,11.8,2.0,29.46,North,11,9.0,10.0,64,0.00,,,0.00,Wunderground v.1.15,2013-02-18 02:35:00,
2013-02-17 21:40:00,11.8,2.0,29.45,SW,226,10.0,12.0,64,0.00,,,0.00,Wunderground v.1.15,2013-02-18 02:40:00,
2013-02-17 21:50:00,11.6,2.1,29.46,SE,143,11.0,11.0,65,0.00,,,0.00,Wunderground v.1.15,2013-02-18 02:50:00,
2013-02-17 21:55:00,11.6,2.1,29.47,WSW,239,10.0,11.0,65,0.00,,,0.00,Wunderground v.1.15,2013-02-18 02:55:00,
2013-02-17 22:00:00,11.5,2.3,29.46,West,276,9.0,9.0,66,0.00,,,0.00,Wunderground v.1.15,2013-02-18 03:00:00,